Time;durP1;ratioP1;P1;durP2;ratioP2;P2;SDS_P1;SDS_P2;PMS_P1;PMS_P2;Temp;Humidity;BMP_temperature;BMP_pressure;BME280_temperature;BME280_humidity;BME280_pressure;Samples;Min_cycle;Max_cycle;Signal;HPM_P1;HPM_P2
2022/05/31 05:22:33;;;;;;;1.13;0.40;;;16.10;92.70;;;;;;4594317;23;10001531;-68
2022/05/31 05:25:00;;;;;;;2.28;0.30;;;15.70;93.30;;;;;;4925080;29;20046;-64
2022/05/31 05:27:27;;;;;;;0.52;0.28;;;15.40;94.20;;;;;;4931215;29;20028;-64
2022/05/31 05:32:39;;;;;;;1.60;0.30;;;14.70;94.90;;;;;;4966000;28;20680;-67
2022/05/31 05:35:07;;;;;;;2.38;0.38;;;14.30;96.10;;;;;;4965150;28;20030;-73
2022/05/31 05:37:33;;;;;;;2.20;0.30;;;14.10;97.50;;;;;;4964122;28;20023;-68
2022/05/31 05:40:00;;;;;;;0.38;0.22;;;13.90;98.70;;;;;;4963272;28;20030;-69
2022/05/31 05:42:27;;;;;;;1.05;0.50;;;13.60;99.90;;;;;;4621271;28;9999645;-69
2022/05/31 05:44:55;;;;;;;2.15;0.32;;;13.40;99.90;;;;;;4963297;28;20490;-67
2022/05/31 05:47:22;;;;;;;0.40;0.30;;;13.10;99.90;;;;;;4962970;28;20023;-68
2022/05/31 05:49:49;;;;;;;3.63;0.30;;;12.80;99.90;;;;;;4945789;28;20385;-75
2022/05/31 05:52:16;;;;;;;3.20;0.45;;;12.20;99.90;;;;;;4963760;28;20019;-69
2022/05/31 05:54:43;;;;;;;1.10;0.38;;;11.90;99.90;;;;;;4961518;28;20086;-70
2022/05/31 05:57:10;;;;;;;2.08;0.50;;;11.50;99.90;;;;;;4962392;28;20026;-70
2022/05/31 05:59:37;;;;;;;1.13;0.40;;;11.20;99.90;;;;;;4945205;28;20471;-69
2022/05/31 06:02:13;;;;;;;1.30;0.30;;;11.10;99.90;;;;;;4963174;28;20081;-73
2022/05/31 06:04:49;;;;;;;0.50;0.30;;;11.00;99.90;;;;;;4963229;28;20034;-76
2022/05/31 06:07:27;;;;;;;0.70;0.45;;;10.90;99.90;;;;;;4963370;28;20391;-73
2022/05/31 06:10:12;;;;;;;0.30;0.30;;;10.90;99.90;;;;;;4962642;28;20039;-71
2022/05/31 06:12:43;;;;;;;0.50;0.30;;;11.00;99.90;;;;;;4962331;28;20157;-76
2022/05/31 06:15:19;;;;;;;0.40;0.30;;;11.20;99.90;;;;;;4963742;28;20810;-66
2022/05/31 06:17:49;;;;;;;1.20;0.90;;;11.30;99.90;;;;;;4962210;28;20400;-73
2022/05/31 06:20:16;;;;;;;0.80;0.43;;;11.40;99.90;;;;;;4963884;28;20633;-74
2022/05/31 06:22:44;;;;;;;0.28;0.28;;;11.40;99.90;;;;;;4961951;28;20077;-71
2022/05/31 06:25:14;;;;;;;0.98;0.50;;;11.40;99.90;;;;;;4963028;28;20023;-68
2022/05/31 06:27:41;;;;;;;1.45;0.30;;;11.40;99.90;;;;;;4962721;28;20118;-67
2022/05/31 06:30:11;;;;;;;0.60;0.60;;;11.30;99.90;;;;;;4962014;28;20078;-67
2022/05/31 06:32:38;;;;;;;0.60;0.60;;;11.20;99.90;;;;;;4962259;28;20502;-68
2022/05/31 06:35:06;;;;;;;0.68;0.45;;;11.20;99.90;;;;;;4962619;28;20027;-67
2022/05/31 06:37:33;;;;;;;0.60;0.47;;;11.20;99.90;;;;;;4963658;28;20396;-68
2022/05/31 06:40:03;;;;;;;2.33;1.10;;;11.10;99.90;;;;;;4962911;28;20113;-71
2022/05/31 06:42:32;;;;;;;1.67;1.05;;;11.00;99.90;;;;;;4962997;28;20026;-67
2022/05/31 06:44:59;;;;;;;3.13;1.58;;;11.00;99.90;;;;;;4964162;28;20447;-72
2022/05/31 06:47:26;;;;;;;1.00;0.65;;;10.80;99.90;;;;;;4964646;28;20046;-67
2022/05/31 06:49:53;;;;;;;0.63;0.50;;;10.90;99.90;;;;;;4965325;28;20102;-68
2022/05/31 06:57:57;;;;;;;1.90;0.40;;;10.90;99.90;;;;;;4962776;28;20054;-72
2022/05/31 07:00:24;;;;;;;0.32;0.25;;;10.80;99.90;;;;;;4965520;28;20512;-72
2022/05/31 07:02:53;;;;;;;0.20;0.20;;;10.70;99.90;;;;;;4964709;28;20121;-71
2022/05/31 07:05:20;;;;;;;0.50;0.40;;;10.60;99.90;;;;;;4963255;28;20058;-65
2022/05/31 07:07:48;;;;;;;0.38;0.38;;;10.60;99.90;;;;;;4964583;28;20023;-66
2022/05/31 07:10:16;;;;;;;0.40;0.40;;;10.60;99.90;;;;;;4963743;28;20022;-65
2022/05/31 07:12:43;;;;;;;1.15;0.80;;;10.60;99.90;;;;;;4962054;28;20045;-66
2022/05/31 07:15:11;;;;;;;1.45;0.80;;;10.60;99.90;;;;;;4964839;28;20023;-70
2022/05/31 07:17:38;;;;;;;1.10;0.52;;;10.60;99.90;;;;;;4964629;28;20050;-69
2022/05/31 07:20:06;;;;;;;1.20;0.40;;;10.50;99.90;;;;;;4961520;28;20432;-66
2022/05/31 07:22:34;;;;;;;0.70;0.63;;;10.50;99.90;;;;;;4951508;28;21436;-65
2022/05/31 07:25:01;;;;;;;0.70;0.40;;;10.50;99.90;;;;;;4956101;28;20031;-72
2022/05/31 07:27:29;;;;;;;0.20;0.20;;;10.50;99.90;;;;;;4941036;28;20331;-74
2022/05/31 07:29:56;;;;;;;1.30;0.43;;;10.50;99.90;;;;;;4951994;28;20054;-76
2022/05/31 07:32:23;;;;;;;0.68;0.50;;;10.50;99.90;;;;;;4942046;28;20582;-68
2022/05/31 07:34:50;;;;;;;0.47;0.40;;;10.40;99.90;;;;;;4941892;29;20138;-74
2022/05/31 07:37:17;;;;;;;0.57;0.50;;;10.40;99.90;;;;;;4940619;28;20031;-71
2022/05/31 07:39:44;;;;;;;0.65;0.50;;;10.40;99.90;;;;;;4941424;28;20027;-68
2022/05/31 07:42:11;;;;;;;0.85;0.68;;;10.30;99.90;;;;;;4937966;28;20034;-73
2022/05/31 07:44:39;;;;;;;1.45;0.57;;;10.30;99.90;;;;;;4939193;28;20039;-69
2022/05/31 07:47:06;;;;;;;2.05;0.93;;;10.20;99.90;;;;;;4941389;28;20287;-71
2022/05/31 07:49:34;;;;;;;1.80;0.90;;;10.10;99.90;;;;;;4940290;28;20031;-71
2022/05/31 07:52:01;;;;;;;0.70;0.70;;;10.10;99.90;;;;;;4942051;28;20027;-68
2022/05/31 07:54:32;;;;;;;1.23;0.80;;;10.10;99.90;;;;;;4940381;29;20329;-69
2022/05/31 07:56:59;;;;;;;1.20;0.75;;;10.10;99.90;;;;;;4938890;28;20620;-72
2022/05/31 07:59:27;;;;;;;2.53;1.10;;;10.00;99.90;;;;;;4938863;28;20083;-68
2022/05/31 08:01:54;;;;;;;1.23;0.80;;;9.90;99.90;;;;;;4940117;28;20039;-70
2022/05/31 08:04:21;;;;;;;3.05;0.98;;;9.80;99.90;;;;;;4941116;28;20037;-75
2022/05/31 08:06:48;;;;;;;2.50;1.10;;;9.80;99.90;;;;;;4943098;29;20122;-69
2022/05/31 08:09:15;;;;;;;2.53;1.05;;;9.90;99.90;;;;;;4941933;29;20408;-71
2022/05/31 08:11:42;;;;;;;1.48;1.17;;;9.70;99.90;;;;;;4939931;28;20042;-69
2022/05/31 08:14:09;;;;;;;3.05;0.95;;;9.70;99.90;;;;;;4939915;29;20031;-70
2022/05/31 08:16:36;;;;;;;3.55;1.15;;;9.60;99.90;;;;;;4942122;28;20030;-69
2022/05/31 08:19:04;;;;;;;3.50;1.67;;;9.80;99.90;;;;;;4940335;29;20499;-69
2022/05/31 08:21:32;;;;;;;2.38;1.42;;;9.70;99.90;;;;;;4941415;28;20182;-69
2022/05/31 08:24:02;;;;;;;2.55;1.10;;;9.70;99.90;;;;;;4940845;29;20082;-68
2022/05/31 08:26:29;;;;;;;1.65;1.00;;;9.60;99.90;;;;;;4939536;28;20870;-69
2022/05/31 08:28:56;;;;;;;2.15;0.90;;;9.60;99.90;;;;;;4944663;28;20020;-69
2022/05/31 08:31:27;;;;;;;1.80;1.10;;;9.80;99.90;;;;;;4959286;28;20023;-74
2022/05/31 08:33:54;;;;;;;2.78;1.02;;;9.70;99.90;;;;;;4953449;28;20897;-66
2022/05/31 08:36:21;;;;;;;2.88;1.13;;;9.70;99.90;;;;;;4958781;28;20483;-70
2022/05/31 08:38:49;;;;;;;1.15;0.90;;;9.80;99.90;;;;;;4959170;28;20054;-68
2022/05/31 08:41:35;;;;;;;1.77;0.77;;;9.90;99.90;;;;;;4959275;28;20082;-67
2022/05/31 08:44:34;;;;;;;1.95;1.02;;;10.00;99.90;;;;;;4959228;28;20046;-77
2022/05/31 08:47:38;;;;;;;2.67;1.08;;;10.00;99.90;;;;;;4959279;28;21707;-73
2022/05/31 08:53:24;;;;;;;1.13;0.75;;;9.80;99.90;;;;;;4958986;28;20046;-73
2022/05/31 08:59:09;;;;;;;1.27;0.90;;;9.80;99.90;;;;;;4957041;28;20085;-67
2022/05/31 09:01:50;;;;;;;3.03;0.80;;;9.80;99.90;;;;;;4959175;28;20074;-69
2022/05/31 09:04:39;;;;;;;2.45;1.20;;;9.80;99.90;;;;;;4959940;28;20038;-70
2022/05/31 09:07:30;;;;;;;2.75;1.27;;;9.70;99.90;;;;;;4958884;28;20031;-66
2022/05/31 09:10:13;;;;;;;1.63;1.27;;;9.80;99.90;;;;;;4957819;28;20031;-75
2022/05/31 09:12:48;;;;;;;3.58;1.88;;;9.90;99.90;;;;;;4958959;28;20114;-68
2022/05/31 09:15:25;;;;;;;4.35;1.77;;;9.90;99.90;;;;;;4959473;28;20040;-73
2022/05/31 09:17:56;;;;;;;2.28;1.25;;;9.90;99.90;;;;;;4958873;28;20088;-74
2022/05/31 09:20:46;;;;;;;2.50;1.48;;;9.90;99.90;;;;;;4958173;28;20118;-70
2022/05/31 09:23:30;;;;;;;3.58;1.17;;;10.00;99.90;;;;;;4958371;28;20538;-68
2022/05/31 09:26:16;;;;;;;2.80;1.35;;;10.20;99.90;;;;;;4957900;28;20281;-67
2022/05/31 09:29:16;;;;;;;2.58;1.23;;;10.10;99.90;;;;;;4958288;28;20455;-67
2022/05/31 09:31:54;;;;;;;2.80;1.80;;;10.10;99.90;;;;;;4876982;29;20040;-77
2022/05/31 09:34:45;;;;;;;2.45;1.48;;;10.30;99.90;;;;;;4876741;29;20481;-69
2022/05/31 09:37:25;;;;;;;2.95;1.45;;;10.40;99.90;;;;;;4875519;29;20032;-67
2022/05/31 09:40:35;;;;;;;1.98;0.90;;;10.50;99.90;;;;;;4875710;29;20047;-71
2022/05/31 09:43:13;;;;;;;4.13;2.20;;;10.70;99.90;;;;;;4872625;29;20551;-71
2022/05/31 09:45:54;;;;;;;2.03;1.15;;;10.70;99.90;;;;;;4877089;29;20466;-68
2022/05/31 09:48:22;;;;;;;2.35;1.17;;;11.00;99.90;;;;;;4874670;29;20612;-66
2022/05/31 09:50:49;;;;;;;2.70;0.80;;;11.00;99.90;;;;;;4872658;29;20145;-74
2022/05/31 09:59:10;;;;;;;1.15;0.65;;;11.20;99.90;;;;;;4869323;29;20058;-74
2022/05/31 10:01:47;;;;;;;2.33;0.50;;;11.10;99.90;;;;;;4872963;29;20395;-68
2022/05/31 10:04:24;;;;;;;0.63;0.50;;;11.10;99.90;;;;;;4873828;29;20581;-66
2022/05/31 10:06:57;;;;;;;0.63;0.40;;;11.10;99.90;;;;;;4873117;29;20124;-69
2022/05/31 10:09:36;;;;;;;1.88;0.60;;;11.00;99.90;;;;;;4951580;28;20053;-72
2022/05/31 10:12:15;;;;;;;0.65;0.50;;;11.20;99.90;;;;;;4952765;28;20344;-69
2022/05/31 10:14:50;;;;;;;0.30;0.30;;;11.30;99.90;;;;;;4952473;28;20074;-69
2022/05/31 10:17:32;;;;;;;0.43;0.25;;;11.30;99.90;;;;;;4952843;28;20129;-68
2022/05/31 10:20:25;;;;;;;0.75;0.40;;;11.60;99.90;;;;;;4951123;28;20030;-74
2022/05/31 10:22:54;;;;;;;2.17;0.30;;;11.80;99.70;;;;;;4950946;28;20402;-69
2022/05/31 10:25:31;;;;;;;1.52;0.63;;;11.70;99.80;;;;;;4952516;28;20026;-70
2022/05/31 10:28:04;;;;;;;0.57;0.20;;;11.60;99.90;;;;;;4957079;28;20041;-69
2022/05/31 10:30:33;;;;;;;2.88;0.82;;;11.60;99.90;;;;;;4953266;28;20125;-66
2022/05/31 10:33:13;;;;;;;1.95;0.40;;;11.60;99.90;;;;;;4953518;28;20062;-69
2022/05/31 10:35:43;;;;;;;1.58;0.60;;;11.50;99.90;;;;;;4930225;28;20047;-70
2022/05/31 10:38:32;;;;;;;1.23;0.50;;;11.40;99.90;;;;;;4932592;28;20470;-70
2022/05/31 10:41:01;;;;;;;0.98;0.70;;;11.40;99.90;;;;;;4932661;28;20535;-70
2022/05/31 10:43:46;;;;;;;1.90;0.43;;;11.30;99.90;;;;;;4934875;28;20043;-67
2022/05/31 10:46:19;;;;;;;2.70;0.70;;;11.30;99.90;;;;;;4933035;28;20028;-67
2022/05/31 10:48:52;;;;;;;2.75;0.60;;;11.30;99.90;;;;;;4930626;28;20089;-72
2022/05/31 10:51:41;;;;;;;2.00;0.60;;;11.20;99.90;;;;;;4932182;28;20193;-74
2022/05/31 10:54:20;;;;;;;2.60;0.70;;;11.30;99.90;;;;;;4838522;29;20094;-72
2022/05/31 10:57:11;;;;;;;2.35;0.80;;;11.30;99.90;;;;;;4840161;29;20053;-67
2022/05/31 10:59:46;;;;;;;2.05;0.60;;;11.30;99.90;;;;;;4841336;29;20052;-70
2022/05/31 11:02:21;;;;;;;1.95;0.68;;;11.20;99.90;;;;;;4842043;29;20113;-68
2022/05/31 11:05:19;;;;;;;1.00;0.50;;;11.20;99.90;;;;;;4842287;29;20104;-68
2022/05/31 11:13:52;;;;;;;1.73;0.98;;;11.20;99.90;;;;;;4786359;29;20831;-68
2022/05/31 11:16:30;;;;;;;2.88;0.60;;;11.10;99.90;;;;;;4794030;29;20038;-69
2022/05/31 11:19:09;;;;;;;5.13;0.68;;;11.00;99.90;;;;;;4794108;29;20657;-69
2022/05/31 11:21:47;;;;;;;4.03;0.93;;;11.00;99.90;;;;;;4791322;29;20130;-72
2022/05/31 11:24:14;;;;;;;3.90;0.90;;;11.00;99.90;;;;;;4791349;29;20051;-69
2022/05/31 11:27:11;;;;;;;2.58;1.35;;;10.90;99.90;;;;;;4790759;29;20071;-68
2022/05/31 11:29:50;;;;;;;0.93;0.40;;;10.90;99.90;;;;;;4795790;29;20050;-70
2022/05/31 11:32:16;;;;;;;2.83;0.70;;;10.80;99.90;;;;;;4853111;29;20041;-69
2022/05/31 11:35:03;;;;;;;1.10;0.40;;;10.70;99.90;;;;;;4862110;29;20028;-69
2022/05/31 11:37:42;;;;;;;0.93;0.55;;;10.70;99.90;;;;;;4863680;29;20423;-69
2022/05/31 11:40:32;;;;;;;1.25;0.63;;;10.40;99.90;;;;;;4864425;29;20041;-68
2022/05/31 11:43:01;;;;;;;1.63;0.70;;;10.40;99.90;;;;;;4859021;29;20133;-70
2022/05/31 11:45:37;;;;;;;0.95;0.43;;;10.20;99.90;;;;;;4939019;28;20027;-68
2022/05/31 11:48:13;;;;;;;1.65;0.68;;;10.10;99.90;;;;;;4940743;28;20792;-70
2022/05/31 11:51:19;;;;;;;0.90;0.40;;;10.00;99.90;;;;;;4940762;28;20914;-70
2022/05/31 11:53:49;;;;;;;1.80;0.70;;;9.90;99.90;;;;;;4935817;28;20067;-71
2022/05/31 11:56:34;;;;;;;1.15;0.60;;;9.70;99.90;;;;;;4944146;28;20031;-72
2022/05/31 11:59:10;;;;;;;2.17;0.63;;;9.80;99.90;;;;;;4942690;28;20027;-70
2022/05/31 12:01:46;;;;;;;1.27;0.30;;;10.00;99.90;;;;;;4945278;28;20033;-70
2022/05/31 12:04:49;;;;;;;0.45;0.32;;;10.10;99.90;;;;;;4944153;28;20027;-71
2022/05/31 12:07:41;;;;;;;1.63;0.60;;;10.30;99.90;;;;;;4945011;28;20123;-70
2022/05/31 12:10:31;;;;;;;0.63;0.47;;;10.60;99.20;;;;;;4948310;28;20023;-72
2022/05/31 12:13:04;;;;;;;2.78;0.55;;;10.70;98.60;;;;;;4945003;28;20042;-68
2022/05/31 12:15:36;;;;;;;1.35;0.50;;;10.90;97.90;;;;;;4944096;28;20028;-73
2022/05/31 12:18:31;;;;;;;1.35;0.50;;;10.90;98.30;;;;;;4942844;28;20031;-68
2022/05/31 12:21:29;;;;;;;3.30;0.98;;;10.80;98.30;;;;;;4943673;28;20038;-69
2022/05/31 12:24:18;;;;;;;0.90;0.40;;;10.80;97.90;;;;;;4943947;28;20035;-68
2022/05/31 12:26:51;;;;;;;4.43;0.50;;;10.90;97.90;;;;;;4944006;29;20090;-71
2022/05/31 12:30:03;;;;;;;2.63;0.52;;;10.90;97.20;;;;;;4947626;28;20039;-71
2022/05/31 12:32:40;;;;;;;0.77;0.40;;;11.00;97.20;;;;;;4885781;29;20037;-69
2022/05/31 12:35:32;;;;;;;1.40;0.50;;;11.00;97.40;;;;;;4886203;29;20637;-69
2022/05/31 12:38:01;;;;;;;2.97;0.80;;;11.00;97.50;;;;;;4790547;29;20453;-71
2022/05/31 12:40:40;;;;;;;2.17;1.10;;;10.90;97.80;;;;;;4794633;29;20068;-68
2022/05/31 12:43:14;;;;;;;3.17;0.60;;;10.90;97.70;;;;;;4794959;29;20138;-68
2022/05/31 12:45:45;;;;;;;4.35;0.90;;;10.80;98.10;;;;;;4793917;29;20035;-69
2022/05/31 12:48:27;;;;;;;1.73;0.80;;;10.80;98.20;;;;;;4798528;29;20402;-72
2022/05/31 12:50:57;;;;;;;6.95;0.93;;;10.80;98.60;;;;;;4791135;29;20859;-74
2022/05/31 12:53:39;;;;;;;4.88;1.17;;;10.80;98.70;;;;;;4795298;29;20053;-70
2022/05/31 12:56:28;;;;;;;4.40;1.20;;;10.70;99.20;;;;;;4795166;29;20149;-69
2022/05/31 12:58:55;;;;;;;1.27;0.50;;;10.70;99.70;;;;;;4733414;30;20066;-70
2022/05/31 13:01:25;;;;;;;3.47;0.98;;;10.50;99.90;;;;;;4742228;30;20055;-72
2022/05/31 13:03:53;;;;;;;7.03;1.02;;;10.50;99.90;;;;;;4733566;30;20052;-69
2022/05/31 13:06:37;;;;;;;5.65;1.00;;;10.50;99.90;;;;;;4732926;30;20601;-69
2022/05/31 13:09:22;;;;;;;0.50;0.45;;;10.40;99.90;;;;;;4776177;29;20048;-70
2022/05/31 13:20:46;;;;;;;3.22;0.80;;;10.40;99.90;;;;;;4869894;29;20063;-70
2022/05/31 13:23:18;;;;;;;0.95;0.52;;;10.30;99.90;;;;;;4867731;29;20578;-75
2022/05/31 13:25:56;;;;;;;7.20;0.95;;;10.30;99.90;;;;;;4862976;29;20090;-70
2022/05/31 13:29:07;;;;;;;3.30;0.70;;;10.30;99.90;;;;;;4868981;29;20103;-71
2022/05/31 13:31:46;;;;;;;5.20;1.08;;;10.10;99.90;;;;;;4868367;29;20128;-69
2022/05/31 13:34:37;;;;;;;2.58;0.85;;;10.20;99.90;;;;;;4869558;29;20032;-70
2022/05/31 13:37:18;;;;;;;2.47;0.70;;;10.20;99.90;;;;;;4956999;28;20142;-71
2022/05/31 13:39:47;;;;;;;3.95;1.33;;;10.20;99.90;;;;;;4965320;28;20034;-72
2022/05/31 13:42:34;;;;;;;6.18;1.10;;;10.20;99.90;;;;;;4966382;28;20034;-71
2022/05/31 13:45:12;;;;;;;4.88;1.45;;;10.40;99.90;;;;;;4966976;28;20046;-70
2022/05/31 13:47:51;;;;;;;3.70;0.70;;;10.30;99.90;;;;;;4966272;28;20036;-69
2022/05/31 13:50:24;;;;;;;6.78;1.63;;;10.30;99.90;;;;;;4966960;28;20019;-71
2022/05/31 13:52:52;;;;;;;5.47;1.45;;;10.20;99.90;;;;;;4963298;28;20031;-71
2022/05/31 13:55:29;;;;;;;4.32;1.23;;;10.20;99.90;;;;;;4967345;28;20065;-69
2022/05/31 13:58:00;;;;;;;5.43;0.75;;;10.20;99.90;;;;;;4963360;28;20081;-71
2022/05/31 14:00:48;;;;;;;1.77;0.65;;;10.20;99.90;;;;;;4949336;28;20470;-71
2022/05/31 14:03:35;;;;;;;5.38;1.33;;;10.20;99.90;;;;;;4964845;28;20050;-69
2022/05/31 14:06:10;;;;;;;4.07;0.68;;;10.10;99.90;;;;;;4966249;28;20070;-69
2022/05/31 14:08:46;;;;;;;3.72;0.60;;;10.00;99.90;;;;;;4937841;28;20054;-71
2022/05/31 14:11:43;;;;;;;2.95;0.73;;;9.90;99.90;;;;;;4966510;28;20177;-69
2022/05/31 14:14:27;;;;;;;1.42;0.60;;;9.90;99.80;;;;;;4965192;28;20050;-69
2022/05/31 14:16:55;;;;;;;0.90;0.40;;;10.00;99.30;;;;;;4966458;28;20062;-71
2022/05/31 14:19:26;;;;;;;0.90;0.40;;;10.20;98.80;;;;;;4962981;28;20418;-70
2022/05/31 14:22:02;;;;;;;3.80;0.57;;;10.20;98.10;;;;;;4964988;28;20086;-71
2022/05/31 14:24:33;;;;;;;2.97;0.73;;;10.30;97.90;;;;;;4965878;28;20077;-71
2022/05/31 14:27:04;;;;;;;3.85;0.80;;;10.30;97.30;;;;;;4965682;28;20023;-71
2022/05/31 14:29:38;;;;;;;2.33;0.40;;;10.40;97.30;;;;;;4966676;28;20039;-71
2022/05/31 14:32:05;;;;;;;1.90;0.55;;;10.40;97.30;;;;;;4966516;28;20196;-71
2022/05/31 14:34:45;;;;;;;2.58;0.77;;;10.50;96.90;;;;;;4968182;28;20493;-71
2022/05/31 14:37:26;;;;;;;2.20;0.65;;;10.40;97.20;;;;;;4964903;28;20500;-70
2022/05/31 14:40:03;;;;;;;2.38;0.70;;;10.40;97.00;;;;;;4964786;28;20110;-71
2022/05/31 14:42:37;;;;;;;5.15;0.90;;;10.40;97.00;;;;;;4963084;28;20065;-70
2022/05/31 14:45:08;;;;;;;3.30;0.90;;;10.50;96.70;;;;;;4967403;28;20031;-70
2022/05/31 14:47:38;;;;;;;0.75;0.50;;;10.60;96.80;;;;;;4964798;28;20042;-70
2022/05/31 14:50:07;;;;;;;0.73;0.50;;;10.50;96.80;;;;;;4967325;28;20029;-71
2022/05/31 14:52:49;;;;;;;1.92;0.50;;;10.40;97.00;;;;;;4965015;28;20109;-72
2022/05/31 14:55:22;;;;;;;0.77;0.50;;;10.30;97.20;;;;;;4967211;28;20054;-72
2022/05/31 14:58:40;;;;;;;0.98;0.60;;;10.30;97.40;;;;;;4966532;28;20041;-70
2022/05/31 15:01:24;;;;;;;3.15;0.63;;;10.30;97.30;;;;;;4963039;28;20085;-69
2022/05/31 15:04:17;;;;;;;2.58;0.55;;;10.50;96.10;;;;;;4963946;28;20023;-71
2022/05/31 15:06:57;;;;;;;0.90;0.60;;;10.40;97.00;;;;;;4961806;28;20066;-70
2022/05/31 15:09:31;;;;;;;0.57;0.50;;;10.40;96.40;;;;;;4969925;28;20023;-71
2022/05/31 15:20:43;;;;;;;0.57;0.30;;;10.30;97.10;;;;;;4969605;28;20070;-69
2022/05/31 15:23:15;;;;;;;0.40;0.40;;;10.20;97.30;;;;;;4970935;28;20113;-70
2022/05/31 15:25:43;;;;;;;0.40;0.40;;;10.20;97.40;;;;;;4971506;28;20030;-69
2022/05/31 15:28:11;;;;;;;1.00;0.80;;;10.20;97.00;;;;;;4971377;28;20019;-69
2022/05/31 15:30:38;;;;;;;1.77;0.30;;;10.20;97.00;;;;;;4964880;28;20054;-69
2022/05/31 15:33:05;;;;;;;2.25;0.60;;;10.20;97.40;;;;;;4973482;28;20027;-71
2022/05/31 15:35:32;;;;;;;0.57;0.45;;;10.20;96.80;;;;;;4969609;28;20027;-69
2022/05/31 15:38:21;;;;;;;0.50;0.40;;;10.30;96.80;;;;;;4969052;28;20031;-70
2022/05/31 15:40:48;;;;;;;0.73;0.40;;;10.30;96.80;;;;;;4967424;28;20145;-69
2022/05/31 15:43:51;;;;;;;1.15;0.32;;;10.10;96.70;;;;;;4970538;28;20569;-71
2022/05/31 15:46:03;;;;;;;1.17;0.45;;;10.10;96.90;;;;;;4969112;28;20045;-71
2022/05/31 15:48:30;;;;;;;1.08;0.63;;;10.10;96.80;;;;;;4970457;28;20085;-73
2022/05/31 15:50:59;;;;;;;0.85;0.40;;;10.10;96.80;;;;;;4968385;28;20067;-72
2022/05/31 15:53:29;;;;;;;0.55;0.40;;;10.00;97.20;;;;;;4969698;28;20023;-73
2022/05/31 15:55:56;;;;;;;1.17;0.50;;;9.90;97.10;;;;;;4972294;28;20031;-72
2022/05/31 15:58:24;;;;;;;0.30;0.30;;;9.90;97.30;;;;;;4970994;28;20034;-71
2022/05/31 16:00:50;;;;;;;2.58;0.60;;;9.90;97.00;;;;;;4972931;28;20027;-72
2022/05/31 16:03:17;;;;;;;1.85;0.40;;;9.80;97.30;;;;;;4977655;28;20033;-73
2022/05/31 16:05:44;;;;;;;1.90;0.90;;;9.80;97.10;;;;;;4971605;28;21034;-70
2022/05/31 16:08:13;;;;;;;0.40;0.40;;;9.80;97.00;;;;;;4976755;28;20169;-71
2022/05/31 16:10:40;;;;;;;1.02;0.45;;;9.70;97.50;;;;;;4971201;28;20027;-72
2022/05/31 16:13:07;;;;;;;1.40;0.50;;;9.70;97.60;;;;;;4970616;28;20022;-71
2022/05/31 16:15:34;;;;;;;2.30;0.57;;;9.60;97.60;;;;;;4970566;28;20031;-72
2022/05/31 16:18:01;;;;;;;2.22;0.55;;;9.70;97.20;;;;;;4975012;28;20457;-71
2022/05/31 16:20:28;;;;;;;2.15;0.45;;;9.60;97.30;;;;;;4970585;28;20030;-70
2022/05/31 16:22:57;;;;;;;2.47;0.93;;;9.60;97.30;;;;;;4974313;28;20026;-71
2022/05/31 16:25:28;;;;;;;0.85;0.50;;;9.40;97.90;;;;;;4967015;28;20031;-69
2022/05/31 16:27:58;;;;;;;0.63;0.52;;;9.40;98.00;;;;;;4960357;28;20026;-71
2022/05/31 16:33:10;;;;;;;1.63;0.60;;;9.20;98.50;;;;;;4973500;28;20030;-69
2022/05/31 16:35:39;;;;;;;2.08;0.43;;;9.30;98.00;;;;;;4969960;28;20444;-69
2022/05/31 16:41:11;;;;;;;1.15;0.40;;;9.60;97.40;;;;;;4969862;28;20065;-72
2022/05/31 16:43:52;;;;;;;0.95;0.40;;;9.60;97.10;;;;;;4975196;28;20038;-69
2022/05/31 16:46:25;;;;;;;5.07;0.50;;;9.80;97.00;;;;;;4973959;28;20038;-71
2022/05/31 16:48:52;;;;;;;3.10;0.50;;;9.80;97.00;;;;;;4971383;28;20044;-69
2022/05/31 16:51:28;;;;;;;0.77;0.35;;;9.70;97.40;;;;;;4971164;28;20693;-69
2022/05/31 16:54:05;;;;;;;1.08;0.75;;;9.70;97.70;;;;;;4973366;28;20388;-72
2022/05/31 16:56:38;;;;;;;1.25;0.60;;;9.70;97.90;;;;;;4966579;28;20037;-70
2022/05/31 16:59:07;;;;;;;1.20;0.50;;;9.60;98.30;;;;;;4970381;28;20035;-71
2022/05/31 17:01:34;;;;;;;0.65;0.35;;;9.50;98.40;;;;;;4974196;28;20483;-71
2022/05/31 17:04:02;;;;;;;1.15;0.40;;;9.60;98.50;;;;;;4973744;28;20037;-71
2022/05/31 17:14:49;;;;;;;2.03;0.50;;;9.40;99.30;;;;;;4968985;28;20045;-72
2022/05/31 17:17:17;;;;;;;2.58;0.50;;;9.30;99.60;;;;;;4970238;28;20537;-71
2022/05/31 17:19:44;;;;;;;0.85;0.50;;;9.30;99.60;;;;;;4970506;28;20026;-71
2022/05/31 17:22:11;;;;;;;2.85;0.47;;;9.30;99.70;;;;;;4970542;28;20050;-72
2022/05/31 17:24:44;;;;;;;1.40;0.50;;;9.30;99.80;;;;;;4972275;28;20662;-70
2022/05/31 17:27:12;;;;;;;0.75;0.50;;;9.30;99.80;;;;;;4965538;28;20463;-73
2022/05/31 17:29:40;;;;;;;0.40;0.32;;;9.30;99.70;;;;;;4994231;23;20061;-71
2022/05/31 17:32:07;;;;;;;2.30;0.65;;;9.30;99.80;;;;;;5008453;28;20065;-71
2022/05/31 17:34:34;;;;;;;1.45;0.40;;;9.30;99.80;;;;;;5008769;28;20030;-70
2022/05/31 17:37:04;;;;;;;1.85;0.65;;;9.20;99.90;;;;;;5008032;28;20030;-69
2022/05/31 17:39:31;;;;;;;1.10;0.50;;;9.20;99.80;;;;;;5008260;28;20036;-71
2022/05/31 17:41:58;;;;;;;2.35;0.40;;;9.30;99.90;;;;;;4991511;28;20371;-71
2022/05/31 17:44:27;;;;;;;2.10;1.13;;;9.20;99.90;;;;;;5008659;28;20443;-71
2022/05/31 17:46:54;;;;;;;1.80;0.50;;;9.30;99.90;;;;;;5008067;28;20067;-70
2022/05/31 17:49:21;;;;;;;1.13;0.30;;;9.40;99.80;;;;;;5008858;28;20510;-72
2022/05/31 17:51:50;;;;;;;1.27;0.30;;;9.40;99.80;;;;;;4991079;28;20449;-70
2022/05/31 17:54:31;;;;;;;0.20;0.20;;;9.40;99.80;;;;;;5007696;28;20084;-70
2022/05/31 17:56:59;;;;;;;0.47;0.35;;;9.40;99.90;;;;;;5005690;28;20022;-71
2022/05/31 17:59:26;;;;;;;3.47;0.57;;;9.30;99.90;;;;;;5006239;28;21433;-70
2022/05/31 18:01:53;;;;;;;0.75;0.30;;;9.30;99.90;;;;;;5004911;28;20030;-70
2022/05/31 18:04:20;;;;;;;1.20;0.40;;;9.20;99.90;;;;;;4990747;28;20363;-71
2022/05/31 18:06:48;;;;;;;0.20;0.20;;;9.30;99.90;;;;;;5006737;28;20030;-71
2022/05/31 18:09:35;;;;;;;0.88;0.82;;;9.10;99.90;;;;;;4998893;28;20027;-71
2022/05/31 18:12:02;;;;;;;1.08;0.45;;;9.10;99.90;;;;;;5005078;28;20026;-70
2022/05/31 18:14:30;;;;;;;0.75;0.30;;;9.10;99.90;;;;;;5008207;28;20148;-70
2022/05/31 18:16:57;;;;;;;0.35;0.35;;;9.10;99.90;;;;;;5006860;28;20040;-70
2022/05/31 18:19:24;;;;;;;1.88;0.30;;;9.00;99.90;;;;;;5007483;28;20061;-70
2022/05/31 18:21:52;;;;;;;0.30;0.30;;;9.00;99.90;;;;;;5007255;28;20030;-71
2022/05/31 18:24:23;;;;;;;2.97;0.50;;;9.00;99.90;;;;;;5008060;28;20041;-71
2022/05/31 18:26:54;;;;;;;2.42;0.40;;;8.90;99.90;;;;;;5005939;28;20458;-73
2022/05/31 18:29:41;;;;;;;0.30;0.30;;;8.90;99.90;;;;;;4990214;28;20414;-71
2022/05/31 18:32:20;;;;;;;0.32;0.28;;;9.00;99.90;;;;;;5004097;28;20057;-70
2022/05/31 18:34:51;;;;;;;0.38;0.30;;;8.90;99.90;;;;;;5007614;28;20048;-72
2022/05/31 18:38:10;;;;;;;1.42;0.40;;;8.90;99.90;;;;;;4989521;28;20063;-74
2022/05/31 18:43:30;;;;;;;0.90;0.30;;;8.90;99.90;;;;;;4949085;28;20520;-73
2022/05/31 18:45:58;;;;;;;0.80;0.30;;;8.80;99.90;;;;;;4950296;29;20043;-70
2022/05/31 18:48:29;;;;;;;0.30;0.30;;;8.90;99.90;;;;;;4950423;29;20064;-70
2022/05/31 18:50:56;;;;;;;0.55;0.30;;;8.80;99.90;;;;;;4951754;28;20039;-69
2022/05/31 18:53:23;;;;;;;0.98;0.98;;;8.70;99.90;;;;;;4950718;29;20050;-70
2022/05/31 18:55:51;;;;;;;1.75;0.60;;;8.70;99.90;;;;;;4950601;29;20506;-70
2022/05/31 18:58:32;;;;;;;0.73;0.40;;;8.60;99.90;;;;;;4948508;29;20039;-70
2022/05/31 19:00:59;;;;;;;0.73;0.40;;;8.50;99.90;;;;;;4953227;28;20031;-69
2022/05/31 19:03:28;;;;;;;2.35;0.50;;;8.20;99.90;;;;;;4950596;29;20091;-73
2022/05/31 19:05:55;;;;;;;2.25;1.00;;;8.00;99.90;;;;;;4949189;29;20035;-70
2022/05/31 19:08:22;;;;;;;0.28;0.25;;;7.90;99.90;;;;;;4948764;29;20023;-67
2022/05/31 19:10:50;;;;;;;0.35;0.30;;;7.90;99.90;;;;;;4952160;28;20101;-70
2022/05/31 19:13:23;;;;;;;0.88;0.80;;;7.80;99.90;;;;;;4950775;29;20039;-73
2022/05/31 19:15:51;;;;;;;1.20;0.50;;;7.60;99.90;;;;;;4950989;29;20030;-71
2022/05/31 19:18:33;;;;;;;0.52;0.32;;;7.30;99.90;;;;;;4963358;28;20096;-72
2022/05/31 19:21:01;;;;;;;1.27;0.40;;;7.10;99.90;;;;;;5010189;28;20513;-67
2022/05/31 19:23:28;;;;;;;0.43;0.30;;;6.90;99.90;;;;;;5008516;28;20061;-71
2022/05/31 19:25:55;;;;;;;0.70;0.47;;;6.70;99.90;;;;;;5010302;28;20022;-67
2022/05/31 19:28:22;;;;;;;0.60;0.38;;;6.60;99.90;;;;;;5010620;28;20049;-70
2022/05/31 19:30:51;;;;;;;2.55;1.00;;;6.60;99.90;;;;;;5003708;28;20049;-70
2022/05/31 19:33:46;;;;;;;15.38;10.10;;;6.50;99.90;;;;;;5011179;28;20080;-70
2022/05/31 19:36:14;;;;;;;6.03;3.65;;;6.30;99.90;;;;;;5003531;28;20092;-70
2022/05/31 19:38:46;;;;;;;1.30;1.00;;;6.10;99.90;;;;;;5009853;28;20096;-70
2022/05/31 19:41:13;;;;;;;1.77;1.08;;;6.10;99.90;;;;;;5011825;28;21195;-70
2022/05/31 19:43:40;;;;;;;1.98;1.10;;;6.40;99.90;;;;;;5011232;28;20112;-74
2022/05/31 19:46:08;;;;;;;0.75;0.60;;;6.70;99.90;;;;;;5011232;28;20694;-70
2022/05/31 19:48:37;;;;;;;1.05;0.55;;;6.80;99.90;;;;;;4994582;28;20128;-73